Time;durP1;ratioP1;P1;durP2;ratioP2;P2;SDS_P1;SDS_P2;PMS_P1;PMS_P2;Temp;Humidity;BMP_temperature;BMP_pressure;BME280_temperature;BME280_humidity;BME280_pressure;Samples;Min_cycle;Max_cycle;Signal;HPM_P1;HPM_P2
2023/09/29 00:00:21;;;;;;;7.90;2.78;;;21.30;99.90;;;;;;4247108;28;20048;-58
2023/09/29 00:02:23;;;;;;;7.75;2.85;;;21.40;99.90;;;;;;4248687;27;20043;-57
2023/09/29 00:04:27;;;;;;;5.95;2.88;;;21.40;99.90;;;;;;4250660;27;20054;-57
2023/09/29 00:06:29;;;;;;;8.27;2.75;;;21.40;99.90;;;;;;4250485;27;20100;-57
2023/09/29 00:08:33;;;;;;;8.50;2.50;;;21.40;99.90;;;;;;4250545;27;20080;-57
2023/09/29 00:10:39;;;;;;;6.68;2.50;;;21.40;99.90;;;;;;4249931;27;20058;-57
2023/09/29 00:12:44;;;;;;;6.15;2.55;;;21.40;99.90;;;;;;4250557;27;20066;-57
2023/09/29 00:14:46;;;;;;;7.05;2.55;;;21.40;99.90;;;;;;4250135;27;20047;-57
2023/09/29 00:16:48;;;;;;;6.82;2.72;;;21.40;99.90;;;;;;4249692;27;20054;-58
2023/09/29 00:18:51;;;;;;;6.40;2.65;;;21.40;99.90;;;;;;4250017;27;20046;-57
2023/09/29 00:20:54;;;;;;;5.40;2.70;;;21.40;99.90;;;;;;4232019;28;20047;-57
2023/09/29 00:23:00;;;;;;;6.75;2.40;;;21.40;99.90;;;;;;4232091;27;20110;-57
2023/09/29 00:25:04;;;;;;;6.65;2.13;;;21.30;99.90;;;;;;4250695;27;20051;-57
2023/09/29 00:27:06;;;;;;;;;;;21.30;99.90;;;;;;4250854;27;20407;-59
2023/09/29 00:29:08;;;;;;;4.13;2.45;;;21.30;99.90;;;;;;4250221;27;19920;-58
2023/09/29 00:31:10;;;;;;;6.18;2.40;;;21.20;99.90;;;;;;4250014;27;20061;-57
2023/09/29 00:33:12;;;;;;;4.38;2.42;;;21.20;99.90;;;;;;4249917;27;20046;-57
2023/09/29 00:35:24;;;;;;;6.03;2.85;;;21.20;99.90;;;;;;4250256;27;20054;-57
2023/09/29 00:37:28;;;;;;;7.13;2.50;;;21.30;99.90;;;;;;4249856;27;20043;-55
2023/09/29 00:39:30;;;;;;;6.45;2.33;;;21.20;99.90;;;;;;4250080;27;20054;-55
2023/09/29 00:41:34;;;;;;;5.85;2.30;;;21.30;99.90;;;;;;4249668;27;20051;-55
2023/09/29 00:43:36;;;;;;;4.78;2.13;;;21.20;99.90;;;;;;4249642;27;20047;-55
2023/09/29 00:45:38;;;;;;;9.20;2.85;;;21.30;99.90;;;;;;4249455;27;20274;-55
2023/09/29 00:47:42;;;;;;;7.53;2.65;;;21.20;99.90;;;;;;4249916;27;20134;-57
2023/09/29 00:49:48;;;;;;;6.27;2.70;;;21.30;99.90;;;;;;4249795;27;20122;-55
2023/09/29 00:51:52;;;;;;;3.53;2.28;;;21.30;99.90;;;;;;4231274;28;20480;-55
2023/09/29 00:53:54;;;;;;;8.60;2.50;;;21.30;99.90;;;;;;4249410;27;20051;-55
2023/09/29 00:55:56;;;;;;;6.88;2.58;;;21.30;99.90;;;;;;4249826;27;20047;-55
2023/09/29 00:58:00;;;;;;;3.97;2.38;;;21.30;99.90;;;;;;4249945;27;20045;-60
2023/09/29 01:00:07;;;;;;;10.93;2.63;;;21.20;99.90;;;;;;4249608;27;20062;-57
2023/09/29 01:02:10;;;;;;;5.43;2.70;;;21.30;99.90;;;;;;4250426;27;20120;-54
2023/09/29 01:04:12;;;;;;;5.75;2.53;;;21.30;99.90;;;;;;4249827;27;20054;-55
2023/09/29 01:06:16;;;;;;;5.85;2.65;;;21.30;99.90;;;;;;4231360;28;20077;-55
2023/09/29 01:08:20;;;;;;;6.32;2.63;;;21.30;99.90;;;;;;4249641;27;20397;-55
2023/09/29 01:10:26;;;;;;;5.57;2.88;;;21.30;99.90;;;;;;4249611;27;20556;-55
2023/09/29 01:12:28;;;;;;;6.10;2.55;;;21.30;99.90;;;;;;4249468;27;20446;-57
2023/09/29 01:14:32;;;;;;;4.43;2.17;;;21.30;99.90;;;;;;4247912;27;20043;-56
2023/09/29 01:16:36;;;;;;;4.18;1.85;;;21.30;99.90;;;;;;4249363;27;20050;-55
2023/09/29 01:18:38;;;;;;;5.18;2.25;;;21.30;99.90;;;;;;4249217;27;20039;-56
2023/09/29 01:20:41;;;;;;;5.10;2.33;;;21.30;99.90;;;;;;4249274;27;20047;-56
2023/09/29 01:22:45;;;;;;;5.18;2.00;;;21.30;99.90;;;;;;4249073;27;20535;-55
2023/09/29 01:24:49;;;;;;;3.53;2.17;;;21.30;99.90;;;;;;4249061;27;20043;-56
2023/09/29 01:26:51;;;;;;;4.60;2.33;;;21.30;99.90;;;;;;4249144;27;20122;-55
2023/09/29 01:28:53;;;;;;;4.93;2.25;;;21.30;99.90;;;;;;4248812;27;20100;-55
2023/09/29 01:30:56;;;;;;;4.85;2.25;;;21.30;99.90;;;;;;4249106;27;20043;-56
2023/09/29 01:32:59;;;;;;;4.30;2.45;;;21.20;99.90;;;;;;4248915;27;20043;-56
2023/09/29 01:35:02;;;;;;;5.53;2.20;;;21.20;99.90;;;;;;4249069;27;20047;-57
2023/09/29 01:37:05;;;;;;;4.65;2.08;;;21.30;99.90;;;;;;4248862;27;20053;-56
2023/09/29 01:39:07;;;;;;;5.75;2.42;;;21.30;99.90;;;;;;4249089;27;20508;-56
2023/09/29 01:41:10;;;;;;;5.55;2.58;;;21.30;99.90;;;;;;4248820;27;20051;-56
2023/09/29 01:43:12;;;;;;;3.65;2.20;;;21.30;99.90;;;;;;4248364;27;20093;-56
2023/09/29 01:45:15;;;;;;;3.75;2.30;;;21.30;99.90;;;;;;4248687;27;20055;-55
2023/09/29 01:47:17;;;;;;;4.97;2.10;;;21.30;99.90;;;;;;4248688;27;20041;-55
2023/09/29 01:49:22;;;;;;;6.80;2.22;;;21.30;99.90;;;;;;4248715;27;20134;-55
2023/09/29 01:51:28;;;;;;;5.72;2.25;;;21.30;99.90;;;;;;4248550;27;20451;-55
2023/09/29 01:53:30;;;;;;;5.30;2.15;;;21.20;99.90;;;;;;4248869;27;20125;-60
2023/09/29 01:55:33;;;;;;;4.43;2.03;;;21.20;99.90;;;;;;4248658;27;20054;-56
2023/09/29 01:57:38;;;;;;;4.25;2.13;;;21.20;99.90;;;;;;4248560;27;20042;-57
2023/09/29 01:59:40;;;;;;;4.15;2.30;;;21.20;99.90;;;;;;4248622;27;20134;-55
2023/09/29 02:01:42;;;;;;;9.02;2.53;;;21.20;99.90;;;;;;4248409;27;20057;-55
2023/09/29 02:03:48;;;;;;;5.07;2.28;;;21.20;99.90;;;;;;4230454;28;20044;-55
2023/09/29 02:05:50;;;;;;;4.65;2.08;;;21.20;99.90;;;;;;4248472;27;20397;-55
2023/09/29 02:07:53;;;;;;;6.78;2.10;;;21.20;99.90;;;;;;4248555;27;20043;-55
2023/09/29 02:09:55;;;;;;;7.07;2.35;;;21.20;99.90;;;;;;4248340;27;20040;-55
2023/09/29 02:11:57;;;;;;;5.57;2.30;;;21.20;99.90;;;;;;4229754;28;20044;-54
2023/09/29 02:14:00;;;;;;;5.05;1.95;;;21.20;99.90;;;;;;4230033;28;20127;-54
2023/09/29 02:16:08;;;;;;;4.65;2.30;;;21.10;99.90;;;;;;4248248;27;20078;-54
2023/09/29 02:18:10;;;;;;;6.28;2.30;;;21.10;99.90;;;;;;4248339;27;20096;-55
2023/09/29 02:20:15;;;;;;;5.32;2.78;;;21.10;99.90;;;;;;4248389;27;20043;-55
2023/09/29 02:22:17;;;;;;;5.93;2.88;;;21.10;99.90;;;;;;4248257;27;20058;-55
2023/09/29 02:24:19;;;;;;;5.68;2.17;;;21.10;99.90;;;;;;4247907;27;20118;-55
2023/09/29 02:26:25;;;;;;;5.35;2.25;;;21.00;99.90;;;;;;4247753;27;20047;-53
2023/09/29 02:28:36;;;;;;;5.68;2.08;;;21.00;99.90;;;;;;4248147;27;20043;-59
2023/09/29 02:30:40;;;;;;;6.18;2.03;;;21.00;99.90;;;;;;4248317;27;20484;-63
2023/09/29 02:32:42;;;;;;;5.63;2.03;;;21.00;99.90;;;;;;4248713;27;20079;-55
2023/09/29 02:34:44;;;;;;;3.63;1.98;;;21.00;99.90;;;;;;4230199;28;20052;-54
2023/09/29 02:36:46;;;;;;;5.00;2.05;;;20.90;99.90;;;;;;4248188;27;20412;-55
2023/09/29 02:38:49;;;;;;;6.03;2.42;;;20.90;99.90;;;;;;4247843;27;20050;-58
2023/09/29 02:40:51;;;;;;;7.68;2.13;;;20.90;99.90;;;;;;4247678;27;20047;-55
2023/09/29 02:42:53;;;;;;;3.88;1.75;;;20.90;99.90;;;;;;4248057;27;20043;-55
2023/09/29 02:44:56;;;;;;;4.15;1.80;;;21.00;99.90;;;;;;4247740;27;20095;-55
2023/09/29 02:47:00;;;;;;;3.25;1.60;;;21.00;99.90;;;;;;4229645;28;20050;-55
2023/09/29 02:49:03;;;;;;;5.72;1.98;;;21.00;99.90;;;;;;4247834;27;20084;-57
2023/09/29 02:51:14;;;;;;;6.90;1.95;;;21.00;99.90;;;;;;4229240;28;20134;-56
2023/09/29 02:53:16;;;;;;;6.10;2.05;;;21.00;99.90;;;;;;4247967;27;20400;-57
2023/09/29 02:55:18;;;;;;;5.00;2.00;;;20.90;99.90;;;;;;4247307;27;20118;-57
2023/09/29 02:57:23;;;;;;;3.88;1.80;;;21.00;99.90;;;;;;4247638;27;20493;-58
2023/09/29 02:59:25;;;;;;;3.97;1.83;;;21.00;99.90;;;;;;4247825;27;20047;-57
2023/09/29 03:01:27;;;;;;;4.35;2.10;;;21.00;99.90;;;;;;4247564;27;20065;-57
2023/09/29 03:03:31;;;;;;;4.95;1.73;;;21.00;99.90;;;;;;4247607;27;20047;-57
2023/09/29 03:05:33;;;;;;;4.35;1.95;;;20.90;99.90;;;;;;4247605;27;20416;-57
2023/09/29 03:07:36;;;;;;;6.50;2.05;;;20.90;99.90;;;;;;4247694;27;20399;-60
2023/09/29 03:09:38;;;;;;;4.75;1.88;;;20.90;99.90;;;;;;4247253;27;20408;-57
2023/09/29 03:11:41;;;;;;;5.03;1.95;;;20.80;99.90;;;;;;4247387;27;20412;-58
2023/09/29 03:13:43;;;;;;;3.63;1.90;;;20.90;99.90;;;;;;4247638;27;20063;-61
2023/09/29 03:15:45;;;;;;;4.80;1.73;;;20.90;99.90;;;;;;4247361;27;20078;-58
2023/09/29 03:17:50;;;;;;;;;;;20.80;99.90;;;;;;4247877;27;20051;-59
2023/09/29 03:19:54;;;;;;;3.67;1.88;;;20.80;99.90;;;;;;4247206;27;19919;-57
2023/09/29 03:21:56;;;;;;;7.20;2.25;;;20.70;99.90;;;;;;4247516;27;20051;-57
2023/09/29 03:23:58;;;;;;;5.63;2.03;;;20.70;99.90;;;;;;4247470;28;20047;-58
2023/09/29 03:26:00;;;;;;;3.22;2.08;;;20.60;99.90;;;;;;4247498;28;20043;-58
2023/09/29 03:28:03;;;;;;;5.20;2.10;;;20.70;99.90;;;;;;4247593;28;20074;-57
2023/09/29 03:30:10;;;;;;;5.28;1.98;;;20.60;99.90;;;;;;4247192;28;20489;-57
2023/09/29 03:32:12;;;;;;;4.22;2.35;;;20.60;99.90;;;;;;4247363;28;20054;-58
2023/09/29 03:34:14;;;;;;;5.45;2.13;;;20.60;99.90;;;;;;4247410;28;20054;-57
2023/09/29 03:36:20;;;;;;;5.55;2.55;;;20.50;99.90;;;;;;4247207;27;20126;-57
2023/09/29 03:38:24;;;;;;;4.72;2.30;;;20.60;99.90;;;;;;4251040;27;20043;-58
2023/09/29 03:40:27;;;;;;;4.40;2.17;;;20.50;99.90;;;;;;4250560;27;20457;-58
2023/09/29 03:42:29;;;;;;;6.43;2.40;;;20.50;99.90;;;;;;4251056;27;20081;-57
2023/09/29 03:44:32;;;;;;;5.82;2.40;;;20.40;99.90;;;;;;4250830;27;20480;-58
2023/09/29 03:46:34;;;;;;;5.65;2.50;;;20.50;99.90;;;;;;4250766;27;20043;-57
2023/09/29 03:48:38;;;;;;;7.50;3.05;;;20.40;99.90;;;;;;4250671;27;20047;-60
2023/09/29 03:50:40;;;;;;;6.20;2.57;;;20.40;99.90;;;;;;4250501;27;20165;-57
2023/09/29 03:52:46;;;;;;;6.10;2.38;;;20.40;99.90;;;;;;4250591;27;20051;-57
2023/09/29 03:54:48;;;;;;;7.75;2.72;;;20.30;99.90;;;;;;4250283;27;20454;-57
2023/09/29 03:56:52;;;;;;;5.47;2.72;;;20.30;99.90;;;;;;4250863;27;20100;-57
2023/09/29 03:58:58;;;;;;;8.50;3.53;;;20.30;99.90;;;;;;4250802;27;20139;-57
2023/09/29 04:01:02;;;;;;;6.20;2.63;;;20.30;99.90;;;;;;4250525;27;20043;-58
2023/09/29 04:03:06;;;;;;;8.25;2.35;;;20.30;99.90;;;;;;4250572;27;20051;-58
2023/09/29 04:05:09;;;;;;;6.00;3.28;;;20.30;99.90;;;;;;4250719;27;20138;-56
2023/09/29 04:07:12;;;;;;;8.00;3.05;;;20.30;99.90;;;;;;4250537;27;20047;-57
2023/09/29 04:09:15;;;;;;;7.45;3.05;;;20.20;99.90;;;;;;4250180;27;20121;-61
2023/09/29 04:11:17;;;;;;;7.13;2.95;;;20.20;99.90;;;;;;4250395;27;20047;-58
2023/09/29 04:13:19;;;;;;;8.95;3.80;;;20.20;99.90;;;;;;4250376;27;20071;-59
2023/09/29 04:15:23;;;;;;;10.43;3.55;;;20.20;99.90;;;;;;4250992;27;20050;-58
2023/09/29 04:17:26;;;;;;;6.78;3.00;;;20.20;99.90;;;;;;4251159;27;20122;-66
2023/09/29 04:19:28;;;;;;;7.07;3.10;;;20.20;99.90;;;;;;4250502;27;20044;-58
2023/09/29 04:21:30;;;;;;;7.32;3.00;;;20.20;99.90;;;;;;4249941;27;20043;-57
2023/09/29 04:23:32;;;;;;;8.13;3.17;;;20.20;99.90;;;;;;4250122;27;20122;-58
2023/09/29 04:25:35;;;;;;;5.60;2.63;;;20.20;99.90;;;;;;4250269;27;20401;-58
2023/09/29 04:27:38;;;;;;;7.38;3.05;;;20.20;99.90;;;;;;4250256;27;20074;-57
2023/09/29 04:29:40;;;;;;;8.20;3.15;;;20.20;99.90;;;;;;4250351;27;20400;-57
2023/09/29 04:31:42;;;;;;;10.50;4.00;;;20.10;99.90;;;;;;4250064;27;20081;-60
2023/09/29 04:33:45;;;;;;;10.65;3.58;;;20.10;99.90;;;;;;4250090;27;20104;-58
2023/09/29 04:35:47;;;;;;;8.73;3.03;;;20.10;99.90;;;;;;4249725;27;20059;-57
2023/09/29 04:37:52;;;;;;;10.52;3.20;;;20.10;99.90;;;;;;4249768;27;20047;-57
2023/09/29 04:39:55;;;;;;;10.82;3.20;;;20.10;99.90;;;;;;4249958;27;20047;-57
2023/09/29 04:41:59;;;;;;;9.40;3.90;;;20.10;99.90;;;;;;4250027;27;20043;-57
2023/09/29 04:44:04;;;;;;;6.28;3.10;;;20.10;99.90;;;;;;4249813;27;20131;-57
2023/09/29 04:46:06;;;;;;;10.50;3.65;;;20.10;99.90;;;;;;4249667;27;20047;-57
2023/09/29 04:48:08;;;;;;;11.63;3.55;;;20.10;99.90;;;;;;4249679;27;20119;-58
2023/09/29 04:50:11;;;;;;;9.20;3.92;;;20.10;99.90;;;;;;4249462;27;20051;-58
2023/09/29 04:52:13;;;;;;;11.38;4.28;;;20.10;99.90;;;;;;4249380;27;20252;-57
2023/09/29 04:54:15;;;;;;;9.38;3.70;;;20.10;99.90;;;;;;4249737;27;20493;-57
2023/09/29 04:56:19;;;;;;;11.27;4.07;;;20.10;99.90;;;;;;4249466;27;20039;-58
2023/09/29 04:58:22;;;;;;;10.25;4.00;;;20.10;99.90;;;;;;4249661;27;20051;-57
2023/09/29 05:00:24;;;;;;;8.77;4.00;;;20.20;99.90;;;;;;4249598;27;20043;-57
2023/09/29 05:02:29;;;;;;;12.48;4.30;;;20.20;99.90;;;;;;4231303;28;20052;-57
2023/09/29 05:04:32;;;;;;;11.77;4.28;;;20.20;99.90;;;;;;4249595;27;20043;-58
2023/09/29 05:06:34;;;;;;;13.57;5.35;;;20.20;99.90;;;;;;4249043;27;20050;-57
2023/09/29 05:08:36;;;;;;;9.63;4.40;;;20.20;99.90;;;;;;4249510;27;20071;-57
2023/09/29 05:10:38;;;;;;;14.13;5.25;;;20.20;99.90;;;;;;4249301;27;20066;-57
2023/09/29 05:12:40;;;;;;;11.00;4.50;;;20.20;99.90;;;;;;4249496;27;20401;-57
2023/09/29 05:14:44;;;;;;;11.90;4.65;;;20.20;99.90;;;;;;4249305;27;20069;-57
2023/09/29 05:16:47;;;;;;;11.90;4.35;;;20.20;99.90;;;;;;4249894;27;20400;-56
2023/09/29 05:18:50;;;;;;;10.85;4.57;;;20.20;99.90;;;;;;4249532;27;20126;-58
2023/09/29 05:20:52;;;;;;;12.68;5.20;;;20.20;99.90;;;;;;4231190;28;20043;-57
2023/09/29 05:22:54;;;;;;;15.02;4.78;;;20.20;99.90;;;;;;4249771;27;20481;-58
2023/09/29 05:24:57;;;;;;;12.93;5.20;;;20.30;99.90;;;;;;4249350;27;20047;-57
2023/09/29 05:26:59;;;;;;;14.77;5.72;;;20.30;99.90;;;;;;4249217;27;20092;-57
2023/09/29 05:29:01;;;;;;;15.48;5.63;;;20.30;99.90;;;;;;4249383;27;20054;-56
2023/09/29 05:31:05;;;;;;;15.07;5.32;;;20.30;99.90;;;;;;4249403;27;20043;-56
2023/09/29 05:33:07;;;;;;;13.33;5.50;;;20.20;99.90;;;;;;4249113;27;20528;-57
2023/09/29 05:35:09;;;;;;;16.15;6.38;;;20.30;99.90;;;;;;4248962;27;20451;-57
2023/09/29 05:37:11;;;;;;;10.80;4.85;;;20.30;99.90;;;;;;4248812;27;20057;-58
2023/09/29 05:39:14;;;;;;;18.90;6.45;;;20.30;99.90;;;;;;4230609;28;20086;-58
2023/09/29 05:41:16;;;;;;;16.95;6.15;;;20.30;99.90;;;;;;4248761;27;20110;-57
2023/09/29 05:43:18;;;;;;;17.83;5.82;;;20.30;99.90;;;;;;4249149;27;20096;-57
2023/09/29 05:45:20;;;;;;;16.70;6.32;;;20.30;99.90;;;;;;4249050;27;20049;-57
2023/09/29 05:47:24;;;;;;;17.50;5.82;;;20.30;99.90;;;;;;4249030;27;20047;-57
2023/09/29 05:49:27;;;;;;;17.42;6.05;;;20.30;99.90;;;;;;4248297;27;20047;-57
2023/09/29 05:51:29;;;;;;;21.10;7.00;;;20.30;99.90;;;;;;4248661;27;20200;-57
2023/09/29 05:53:31;;;;;;;18.08;6.78;;;20.30;99.90;;;;;;4248654;27;20540;-59
2023/09/29 05:55:33;;;;;;;19.40;6.63;;;20.30;99.90;;;;;;4249029;27;20039;-60
2023/09/29 05:57:37;;;;;;;21.27;7.22;;;20.30;99.90;;;;;;4248894;27;20051;-58
2023/09/29 05:59:39;;;;;;;21.85;7.82;;;20.30;99.90;;;;;;4248938;27;20039;-58
2023/09/29 06:01:41;;;;;;;19.63;7.72;;;20.30;99.90;;;;;;4248900;27;20047;-58
2023/09/29 06:03:44;;;;;;;17.80;6.75;;;20.30;99.90;;;;;;4248293;27;20051;-57
2023/09/29 06:05:47;;;;;;;27.33;8.23;;;20.30;99.90;;;;;;4248719;27;20047;-57
2023/09/29 06:07:52;;;;;;;19.88;7.45;;;20.30;99.90;;;;;;4248589;27;20047;-57
2023/09/29 06:09:57;;;;;;;25.80;8.20;;;20.30;99.90;;;;;;4248383;27;20096;-58
2023/09/29 06:11:59;;;;;;;25.98;8.48;;;20.30;99.90;;;;;;4248562;27;20486;-57
2023/09/29 06:14:01;;;;;;;27.95;9.80;;;20.30;99.90;;;;;;4248339;27;20430;-57
2023/09/29 06:16:03;;;;;;;27.90;8.35;;;20.30;99.90;;;;;;4248085;27;20051;-58
2023/09/29 06:18:08;;;;;;;26.48;9.07;;;20.30;99.90;;;;;;4248207;27;20047;-57
2023/09/29 06:20:12;;;;;;;22.27;8.55;;;20.30;99.90;;;;;;4248346;27;20050;-58
2023/09/29 06:22:14;;;;;;;23.13;8.53;;;20.40;99.90;;;;;;4248309;27;20054;-58
2023/09/29 06:24:16;;;;;;;25.90;8.63;;;20.40;99.90;;;;;;4248306;27;20427;-55
2023/09/29 06:26:18;;;;;;;29.15;9.10;;;20.50;99.90;;;;;;4248295;27;20126;-55
2023/09/29 06:28:20;;;;;;;28.88;9.23;;;20.50;99.90;;;;;;4248288;27;20055;-61
2023/09/29 06:30:23;;;;;;;21.60;8.70;;;20.50;99.90;;;;;;4248724;27;20039;-59
2023/09/29 06:32:25;;;;;;;27.83;9.05;;;20.50;99.90;;;;;;4248745;27;20051;-63
2023/09/29 06:34:27;;;;;;;27.10;9.15;;;20.50;99.90;;;;;;4248324;27;20057;-60
2023/09/29 06:36:32;;;;;;;34.95;10.27;;;20.60;99.90;;;;;;4248111;27;20047;-56
2023/09/29 06:38:34;;;;;;;32.78;10.00;;;20.50;99.90;;;;;;4248180;27;20126;-56
2023/09/29 06:40:36;;;;;;;28.33;9.07;;;20.60;99.90;;;;;;4247983;27;20051;-58
2023/09/29 06:42:39;;;;;;;24.58;9.15;;;20.60;99.90;;;;;;4246810;27;20095;-55
2023/09/29 06:44:41;;;;;;;31.52;9.95;;;20.60;99.90;;;;;;4229546;28;20043;-56
2023/09/29 06:46:44;;;;;;;22.73;8.93;;;20.60;99.90;;;;;;4247860;27;20050;-56
2023/09/29 06:48:46;;;;;;;25.55;8.60;;;20.60;99.90;;;;;;4248032;27;20047;-56
2023/09/29 06:50:48;;;;;;;30.92;10.02;;;20.60;99.90;;;;;;4247657;27;20130;-55
2023/09/29 06:52:57;;;;;;;28.92;8.85;;;20.60;99.90;;;;;;4247757;27;20089;-55
2023/09/29 06:54:59;;;;;;;26.67;9.45;;;20.60;99.90;;;;;;4248028;27;20047;-56
2023/09/29 06:57:01;;;;;;;26.33;9.50;;;20.60;99.90;;;;;;4248050;27;20523;-56
2023/09/29 06:59:03;;;;;;;27.73;9.30;;;20.60;99.90;;;;;;4247952;27;20066;-55
2023/09/29 07:01:09;;;;;;;29.85;9.70;;;20.60;99.90;;;;;;4247668;27;20049;-59
2023/09/29 07:03:12;;;;;;;31.75;10.00;;;20.60;99.90;;;;;;4247661;27;20370;-57
2023/09/29 07:05:15;;;;;;;27.27;9.80;;;20.50;99.90;;;;;;4247853;27;20039;-57
2023/09/29 07:07:17;;;;;;;34.72;12.40;;;20.50;99.90;;;;;;4247984;27;20051;-57
2023/09/29 07:09:21;;;;;;;27.27;9.10;;;20.60;99.90;;;;;;4247558;27;20074;-58
2023/09/29 07:11:23;;;;;;;30.80;8.70;;;20.60;99.90;;;;;;4246609;27;20055;-58
2023/09/29 07:13:25;;;;;;;34.22;9.52;;;20.70;99.90;;;;;;4247500;27;20463;-58
2023/09/29 07:15:27;;;;;;;27.85;9.32;;;20.70;99.90;;;;;;4247437;27;20042;-57
2023/09/29 07:17:29;;;;;;;29.10;9.75;;;20.80;99.90;;;;;;4247042;27;20396;-58
2023/09/29 07:19:32;;;;;;;29.45;8.70;;;20.80;99.90;;;;;;4229434;28;20546;-57
2023/09/29 07:21:46;;;;;;;26.45;8.18;;;20.80;99.90;;;;;;4247593;27;20043;-57
2023/09/29 07:23:48;;;;;;;26.95;8.13;;;20.80;99.90;;;;;;4247616;27;20043;-57
2023/09/29 07:25:53;;;;;;;25.33;8.70;;;20.70;99.90;;;;;;4247486;28;20047;-57
2023/09/29 07:27:55;;;;;;;24.27;7.63;;;20.80;99.90;;;;;;4247468;28;20047;-57
2023/09/29 07:29:57;;;;;;;24.50;7.30;;;20.80;99.90;;;;;;4247289;28;20122;-57
2023/09/29 07:31:59;;;;;;;22.80;7.10;;;20.80;99.90;;;;;;4247339;28;20122;-57
2023/09/29 07:34:02;;;;;;;27.83;9.05;;;20.80;99.90;;;;;;4247181;28;20047;-58
2023/09/29 07:36:05;;;;;;;25.55;7.75;;;20.90;99.90;;;;;;4247134;28;20100;-57
2023/09/29 07:38:07;;;;;;;27.08;7.60;;;20.90;99.90;;;;;;4247377;28;20043;-56
2023/09/29 07:40:10;;;;;;;20.30;6.55;;;21.00;99.90;;;;;;4246309;28;20039;-57
2023/09/29 07:42:13;;;;;;;20.48;7.05;;;20.90;99.90;;;;;;4248900;28;20453;-58
2023/09/29 07:44:16;;;;;;;22.65;7.05;;;20.90;99.90;;;;;;4247713;28;20054;-55
2023/09/29 07:46:18;;;;;;;21.17;6.88;;;20.90;99.90;;;;;;4247100;28;20078;-55
2023/09/29 07:48:21;;;;;;;30.45;8.23;;;20.90;99.90;;;;;;4247238;28;20066;-55
2023/09/29 07:50:24;;;;;;;23.40;7.70;;;20.80;99.90;;;;;;4247565;28;20108;-56
2023/09/29 07:52:28;;;;;;;27.50;8.95;;;20.80;99.90;;;;;;4247627;28;20130;-57
2023/09/29 07:54:30;;;;;;;21.17;8.15;;;20.90;99.90;;;;;;4247559;28;20054;-54
2023/09/29 07:56:32;;;;;;;19.70;6.95;;;20.90;99.90;;;;;;4229043;28;20051;-58
2023/09/29 07:58:36;;;;;;;23.50;6.50;;;21.00;99.90;;;;;;4247268;28;20051;-58
2023/09/29 08:00:38;;;;;;;26.92;8.25;;;21.10;99.90;;;;;;4246862;28;20047;-57
2023/09/29 08:02:43;;;;;;;21.67;6.85;;;21.20;99.90;;;;;;4246836;28;20126;-57
2023/09/29 08:04:45;;;;;;;;;;;21.20;99.90;;;;;;4247689;28;20104;-58
2023/09/29 08:06:47;;;;;;;18.77;5.72;;;21.10;99.90;;;;;;4247068;28;19923;-58
2023/09/29 08:08:49;;;;;;;17.52;6.13;;;21.00;99.90;;;;;;4247197;28;20491;-57
2023/09/29 08:10:52;;;;;;;14.20;5.43;;;21.10;99.90;;;;;;4247047;28;20130;-58
2023/09/29 08:12:55;;;;;;;19.13;5.40;;;21.10;99.90;;;;;;4246917;28;20561;-58
2023/09/29 08:14:58;;;;;;;15.30;5.40;;;21.00;99.90;;;;;;4246702;28;20158;-58
2023/09/29 08:17:02;;;;;;;16.17;5.50;;;21.00;99.90;;;;;;4246939;28;20047;-59
2023/09/29 08:19:05;;;;;;;14.38;4.43;;;21.00;99.90;;;;;;4247117;28;20163;-58
2023/09/29 08:21:07;;;;;;;14.27;3.65;;;20.90;99.90;;;;;;4246909;28;20126;-58
2023/09/29 08:23:09;;;;;;;17.60;6.07;;;20.80;99.90;;;;;;4248270;27;20043;-58
2023/09/29 08:25:12;;;;;;;14.20;4.30;;;20.80;99.90;;;;;;4232311;28;20043;-58
2023/09/29 08:27:14;;;;;;;14.40;3.72;;;20.80;99.90;;;;;;4250116;27;20043;-57
2023/09/29 08:29:16;;;;;;;12.38;3.50;;;20.80;99.90;;;;;;4231604;28;20039;-58
2023/09/29 08:31:20;;;;;;;15.15;5.60;;;20.90;99.90;;;;;;4250210;27;20463;-58
2023/09/29 08:33:24;;;;;;;12.23;4.05;;;20.90;99.90;;;;;;4250641;27;20074;-58
2023/09/29 08:35:46;;;;;;;12.27;3.60;;;21.00;99.90;;;;;;4250038;27;20055;-58
2023/09/29 08:37:49;;;;;;;13.48;3.55;;;20.80;99.90;;;;;;4249949;27;20517;-58
2023/09/29 08:39:53;;;;;;;8.82;2.95;;;20.80;99.90;;;;;;4250213;27;20074;-58
2023/09/29 08:42:01;;;;;;;8.43;3.65;;;20.90;99.90;;;;;;4250030;27;20050;-56
2023/09/29 08:44:03;;;;;;;6.05;2.63;;;20.70;99.90;;;;;;4249665;27;20094;-58
2023/09/29 08:46:14;;;;;;;6.20;2.78;;;20.70;99.90;;;;;;4249883;27;20299;-56
2023/09/29 08:48:19;;;;;;;4.95;2.40;;;20.60;99.90;;;;;;4249942;27;20082;-56
2023/09/29 08:50:24;;;;;;;7.45;3.00;;;20.60;99.90;;;;;;4249630;27;20050;-57
2023/09/29 08:52:28;;;;;;;7.68;2.33;;;20.50;99.90;;;;;;4249650;27;20079;-57
2023/09/29 08:54:32;;;;;;;5.85;2.40;;;20.50;99.90;;;;;;4249708;27;20054;-58
2023/09/29 08:56:34;;;;;;;6.47;3.10;;;20.50;99.90;;;;;;4249686;27;20068;-57
2023/09/29 08:58:37;;;;;;;7.25;3.53;;;20.60;99.90;;;;;;4249501;27;20058;-57
2023/09/29 09:00:40;;;;;;;7.35;3.38;;;20.70;99.90;;;;;;4250022;27;20051;-58
2023/09/29 09:02:46;;;;;;;6.75;3.25;;;20.70;99.90;;;;;;4249755;27;20126;-58
2023/09/29 09:04:50;;;;;;;4.65;2.40;;;20.70;99.90;;;;;;4249610;27;20047;-58
2023/09/29 09:06:52;;;;;;;6.47;3.33;;;20.70;99.90;;;;;;4249698;27;20529;-58
2023/09/29 09:08:56;;;;;;;8.88;3.35;;;20.80;99.90;;;;;;4249608;27;20078;-58
2023/09/29 09:11:00;;;;;;;2.55;1.38;;;20.90;99.80;;;;;;4249413;27;20540;-58
2023/09/29 09:13:05;;;;;;;13.18;2.78;;;21.00;99.50;;;;;;4249132;27;20130;-58
2023/09/29 09:15:09;;;;;;;8.38;2.10;;;21.10;99.40;;;;;;4249222;27;20055;-56
2023/09/29 09:17:13;;;;;;;6.85;1.70;;;21.20;99.50;;;;;;4249361;27;20281;-55
2023/09/29 09:19:15;;;;;;;4.22;1.60;;;21.20;99.10;;;;;;4249627;27;20076;-58
2023/09/29 09:21:19;;;;;;;4.97;1.40;;;21.30;99.00;;;;;;4249538;27;20051;-57
2023/09/29 09:23:22;;;;;;;4.20;1.45;;;21.40;98.60;;;;;;4249121;27;20047;-57
2023/09/29 09:25:31;;;;;;;4.35;1.27;;;21.40;98.10;;;;;;4249261;27;20039;-58
2023/09/29 09:27:37;;;;;;;4.55;1.67;;;21.40;98.40;;;;;;4249048;27;20118;-57
2023/09/29 09:29:40;;;;;;;6.05;1.77;;;21.40;98.10;;;;;;4249265;27;20067;-58
2023/09/29 09:31:44;;;;;;;11.38;1.83;;;21.00;98.70;;;;;;4248888;27;20055;-55
2023/09/29 09:33:49;;;;;;;3.78;1.08;;;20.90;99.00;;;;;;4248981;27;20438;-56
2023/09/29 09:36:02;;;;;;;5.93;1.30;;;20.90;99.40;;;;;;4248215;27;20475;-55
2023/09/29 09:38:06;;;;;;;7.10;1.75;;;21.00;99.20;;;;;;4249147;27;20466;-54
2023/09/29 09:40:09;;;;;;;3.22;1.05;;;21.00;99.20;;;;;;4249233;27;20047;-55
2023/09/29 09:42:12;;;;;;;3.65;0.88;;;20.90;99.30;;;;;;4248428;27;20126;-53
2023/09/29 09:44:14;;;;;;;3.60;1.33;;;20.80;99.60;;;;;;4248997;27;20043;-55
2023/09/29 09:46:18;;;;;;;4.70;1.30;;;20.80;99.70;;;;;;4249134;27;20039;-54
2023/09/29 09:48:22;;;;;;;7.75;1.65;;;20.80;99.80;;;;;;4249571;27;20487;-54
2023/09/29 09:50:27;;;;;;;2.20;1.20;;;20.50;99.90;;;;;;4248830;27;20055;-53
2023/09/29 09:52:30;;;;;;;5.80;1.77;;;20.40;99.90;;;;;;4249090;27;20454;-59
2023/09/29 09:54:39;;;;;;;5.80;1.60;;;20.50;99.90;;;;;;4248689;27;20096;-54
2023/09/29 09:56:45;;;;;;;6.88;2.00;;;20.40;99.90;;;;;;4248418;27;20297;-58
2023/09/29 09:58:49;;;;;;;5.53;1.90;;;20.50;99.90;;;;;;4230528;28;20051;-54
2023/09/29 10:00:55;;;;;;;6.07;2.60;;;20.60;99.90;;;;;;4248896;27;20047;-55
2023/09/29 10:03:03;;;;;;;7.00;2.05;;;20.70;99.90;;;;;;4248354;27;20047;-54
2023/09/29 10:05:16;;;;;;;7.63;2.17;;;20.70;99.90;;;;;;4248813;27;20039;-56
2023/09/29 10:07:20;;;;;;;5.97;2.03;;;20.70;99.80;;;;;;4248413;27;20394;-55
2023/09/29 10:09:22;;;;;;;9.15;2.08;;;20.70;99.90;;;;;;4248897;27;20070;-54
2023/09/29 10:11:29;;;;;;;6.65;2.00;;;20.80;99.90;;;;;;4248419;27;20110;-56
2023/09/29 10:13:35;;;;;;;8.80;2.47;;;21.00;99.70;;;;;;4248552;27;20484;-55
2023/09/29 10:15:38;;;;;;;7.20;2.13;;;21.00;99.60;;;;;;4231547;28;20461;-55
2023/09/29 10:17:47;;;;;;;5.93;1.90;;;21.00;99.50;;;;;;4243837;27;20168;-61
2023/09/29 10:19:51;;;;;;;5.70;2.17;;;21.00;99.70;;;;;;4248423;27;20046;-54
2023/09/29 10:22:00;;;;;;;6.03;2.63;;;21.10;99.60;;;;;;4248325;27;20051;-58
2023/09/29 10:24:05;;;;;;;8.52;2.33;;;21.10;99.30;;;;;;4249002;27;20053;-62
2023/09/29 10:26:10;;;;;;;4.75;2.10;;;21.10;99.20;;;;;;4230818;27;20051;-63
2023/09/29 10:28:17;;;;;;;4.60;2.30;;;21.20;99.10;;;;;;4231818;28;20481;-62
2023/09/29 10:30:26;;;;;;;6.03;2.67;;;21.30;99.00;;;;;;4251046;27;20050;-58
2023/09/29 10:32:34;;;;;;;6.10;2.38;;;21.40;98.90;;;;;;4249891;27;20046;-57
2023/09/29 10:34:37;;;;;;;5.05;2.40;;;21.40;99.10;;;;;;4249875;27;20051;-65
2023/09/29 10:36:40;;;;;;;8.43;3.05;;;21.40;98.80;;;;;;4231720;28;20031;-62
2023/09/29 10:38:43;;;;;;;11.20;2.70;;;21.50;98.80;;;;;;4247371;27;20047;-68